^^
Grace C. Lehan Memorial Weather Station Historical Data
Daily Summary for June 1, 2021 Units:  English    Metric   Both
Daily Weekly Monthly Yearly
  High: Low: Average:
Temperature: 81 °F 68.6 °F 75.2 °F
Dew Point: 74.7 °F 67.1 °F 71.3 °F
Humidity: 97% 75.2% 88%
Wind Speed: 1.7mph 0mph 0.1mph
Wind Gust: 6mph - -
Wind- - WNW
Pressure: 29.86 in 29.72 in -
Precipitation: 1.94 in    
 
 
Tabular Data for June 1, 2021
Time Temperature Dew Point Pressure Wind Wind Speed Wind Gust Humidity Rainfall Rate (Hourly) solar
00:04 74.2 °F 72.7 °F 29.85 in Calm     95% 0.00 in 0 W/m2
00:09 74.2 °F 72.7 °F 29.85 in Calm     95% 0.00 in 0 W/m2
00:14 74.2 °F 72.7 °F 29.86 in Calm     95% 0.00 in 0 W/m2
00:19 74.2 °F 72.7 °F 29.86 in Calm     95% 0.00 in 0 W/m2
00:24 74.2 °F 72.7 °F 29.86 in Calm     95% 0.00 in 0 W/m2
00:29 74.2 °F 72.7 °F 29.85 in Calm     95% 0.00 in 0 W/m2
00:34 74.2 °F 72.7 °F 29.85 in Calm     95% 0.19 in 0 W/m2
00:39 74.1 °F 72.6 °F 29.85 in Calm     95% 0.19 in 0 W/m2
00:44 74 °F 72.5 °F 29.84 in Calm     95% 0.19 in 0 W/m2
00:49 73.9 °F 72.4 °F 29.84 in Calm     95% 0.19 in 0 W/m2
00:54 73.8 °F 72.3 °F 29.84 in Calm     95% 0.19 in 0 W/m2
00:59 73.8 °F 72.3 °F 29.84 in Calm     95% 0.19 in 0 W/m2
01:04 73.8 °F 72.3 °F 29.84 in Calm     95% 0.19 in 0 W/m2
01:09 73.7 °F 72.2 °F 29.84 in Calm     95% 0.00 in 0 W/m2
01:14 73.6 °F 72.1 °F 29.84 in Calm     95% 0.00 in 0 W/m2
01:19 73.5 °F 72 °F 29.84 in Calm     95% 0.00 in 0 W/m2
01:24 73.5 °F 72 °F 29.84 in Calm     95% 0.00 in 0 W/m2
01:29 73.4 °F 71.9 °F 29.84 in Calm     95% 0.00 in 0 W/m2
01:34 73.4 °F 71.9 °F 29.85 in Calm     95% 0.00 in 0 W/m2
01:39 73.4 °F 71.9 °F 29.85 in Calm   1 mph 95% 0.00 in 0 W/m2
01:44 73.4 °F 71.9 °F 29.85 in NNW 0.1 mph 3 mph 95% 0.00 in 0 W/m2
01:49 73.3 °F 71.8 °F 29.85 in NNW 0.1 mph 4 mph 95% 0.00 in 0 W/m2
01:54 73.2 °F 71.7 °F 29.85 in Calm   4 mph 95% 0.00 in 0 W/m2
01:59 73.1 °F 71.6 °F 29.85 in Calm   4 mph 95% 0.00 in 0 W/m2
02:04 73 °F 71.5 °F 29.84 in Calm   4 mph 95% 0.00 in 0 W/m2
02:09 72.9 °F 71.4 °F 29.84 in Calm     95% 0.00 in 0 W/m2
02:14 72.9 °F 71.4 °F 29.84 in Calm     95% 0.00 in 0 W/m2
02:19 72.8 °F 71.3 °F 29.84 in Calm     95% 0.00 in 0 W/m2
02:24 72.7 °F 71.2 °F 29.84 in Calm     95% 0.00 in 0 W/m2
02:29 72.7 °F 71.2 °F 29.85 in Calm     95% 0.00 in 0 W/m2
02:34 72.7 °F 71.2 °F 29.84 in Calm     95% 0.00 in 0 W/m2
02:39 72.7 °F 71.2 °F 29.84 in Calm     95% 0.00 in 0 W/m2
02:44 72.6 °F 71.1 °F 29.84 in Calm     95% 0.00 in 0 W/m2
02:49 72.6 °F 71.1 °F 29.84 in Calm     95% 0.00 in 0 W/m2
02:54 72.6 °F 71.1 °F 29.84 in Calm     95% 0.00 in 0 W/m2
02:59 72.5 °F 71 °F 29.83 in Calm     95% 0.00 in 0 W/m2
03:04 72.5 °F 70.9 °F 29.84 in Calm     95% 0.00 in 0 W/m2
03:09 72.4 °F 70.9 °F 29.84 in Calm     95% 0.00 in 0 W/m2
03:14 72.3 °F 70.8 °F 29.83 in Calm     95% 0.00 in 0 W/m2
03:19 72.2 °F 70.7 °F 29.83 in Calm     95% 0.00 in 0 W/m2
03:24 72.2 °F 70.7 °F 29.83 in Calm     95% 0.00 in 0 W/m2
03:29 72.1 °F 70.6 °F 29.83 in Calm     95% 0.00 in 0 W/m2
03:34 72.1 °F 70.6 °F 29.83 in Calm     95% 0.00 in 0 W/m2
03:39 72.1 °F 70.6 °F 29.83 in Calm     95% 0.00 in 0 W/m2
03:44 72 °F 70.5 °F 29.83 in Calm   1 mph 95% 0.00 in 0 W/m2
03:49 72 °F 70.5 °F 29.83 in Calm   1 mph 95% 0.00 in 0 W/m2
03:54 72 °F 70.5 °F 29.83 in Calm   1 mph 95% 0.00 in 0 W/m2
03:59 71.9 °F 70.4 °F 29.82 in Calm   1 mph 95% 0.00 in 0 W/m2
04:04 71.9 °F 70.4 °F 29.82 in Calm     95% 0.00 in 0 W/m2
04:09 71.9 °F 70.5 °F 29.82 in Calm     95.4% 0.00 in 0 W/m2
04:14 71.8 °F 70.6 °F 29.82 in Calm     96% 0.00 in 0 W/m2
04:19 71.8 °F 70.6 °F 29.82 in Calm     96% 0.00 in 0 W/m2
04:24 71.7 °F 70.5 °F 29.82 in Calm     96% 0.00 in 0 W/m2
04:29 71.7 °F 70.5 °F 29.82 in Calm     96% 0.00 in 0 W/m2
04:34 71.7 °F 70.5 °F 29.82 in Calm     96% 0.00 in 0 W/m2
04:39 71.7 °F 70.5 °F 29.82 in Calm     96% 0.00 in 0 W/m2
04:44 71.6 °F 70.4 °F 29.82 in Calm     96% 0.00 in 0 W/m2
04:49 71.6 °F 70.4 °F 29.82 in Calm     96% 0.00 in 0 W/m2
04:54 71.6 °F 70.4 °F 29.81 in Calm     96% 0.00 in 0 W/m2
04:59 71.6 °F 70.4 °F 29.81 in Calm     96% 0.00 in 0 W/m2
05:04 71.6 °F 70.4 °F 29.82 in Calm     96% 0.00 in 0 W/m2
05:09 71.5 °F 70.3 °F 29.82 in Calm     96% 0.00 in 0 W/m2
05:14 71.5 °F 70.3 °F 29.82 in Calm     96% 0.00 in 0 W/m2
05:19 71.5 °F 70.3 °F 29.82 in Calm     96% 0.00 in 0 W/m2
05:24 71.4 °F 70.2 °F 29.82 in Calm     96% 0.00 in 0 W/m2
05:29 71.4 °F 70.2 °F 29.82 in Calm     96% 0.00 in 0 W/m2
05:34 71.4 °F 70.2 °F 29.82 in Calm     96% 0.00 in 0 W/m2
05:39 71.4 °F 70.2 °F 29.82 in Calm     96% 0.00 in 5 W/m2
05:44 71.4 °F 70.2 °F 29.82 in Calm     96% 0.00 in 7 W/m2
05:49 71.4 °F 70.2 °F 29.82 in Calm     96% 0.00 in 11 W/m2
05:54 71.5 °F 70.3 °F 29.82 in Calm     96% 0.00 in 12 W/m2
05:59 71.5 °F 70.3 °F 29.82 in Calm     96% 0.00 in 18 W/m2
06:04 71.5 °F 70.3 °F 29.82 in Calm     96% 0.00 in 21 W/m2
06:09 71.5 °F 70.3 °F 29.82 in Calm     96% 0.00 in 23 W/m2
06:14 71.6 °F 70.4 °F 29.82 in Calm     96% 0.00 in 25 W/m2
06:19 71.6 °F 70.4 °F 29.82 in Calm     96% 0.00 in 33 W/m2
06:24 71.7 °F 70.5 °F 29.82 in Calm     96% 0.00 in 54 W/m2
06:29 71.7 °F 70.5 °F 29.82 in Calm     96% 0.00 in 58 W/m2
06:34 71.9 °F 70.7 °F 29.82 in Calm     96% 0.00 in 49 W/m2
06:39 72 °F 70.8 °F 29.82 in Calm     96% 0.00 in 37 W/m2
06:44 72.1 °F 70.9 °F 29.82 in Calm     96% 0.00 in 30 W/m2
06:49 72.2 °F 71 °F 29.82 in Calm     96% 0.00 in 54 W/m2
06:54 72.2 °F 71 °F 29.82 in Calm     96% 0.00 in 105 W/m2
06:59 72.4 °F 71.4 °F 29.82 in Calm     96.5% 0.00 in 120 W/m2
07:04 72.8 °F 71.8 °F 29.83 in Calm     96.5% 0.00 in 109 W/m2
07:09 73.2 °F 72.3 °F 29.83 in Calm     97% 0.00 in 102 W/m2
07:14 73.4 °F 72.5 °F 29.83 in Calm     97% 0.00 in 123 W/m2
07:19 73.6 °F 72.5 °F 29.83 in Calm   1 mph 96.3% 0.00 in 149 W/m2
07:24 73.8 °F 72.8 °F 29.83 in Calm   1 mph 96.9% 0.00 in 144 W/m2
07:29 73.9 °F 72.7 °F 29.83 in WSW 0.3 mph 3 mph 96% 0.00 in 132 W/m2
07:34 74 °F 72.8 °F 29.83 in Calm   3 mph 96% 0.00 in 229 W/m2
07:39 74.2 °F 72.7 °F 29.83 in Calm     95.1% 0.00 in 243 W/m2
07:44 74.5 °F 73 °F 29.83 in Calm     95% 0.00 in 323 W/m2
07:49 74.9 °F 73.2 °F 29.83 in Calm     94.6% 0.00 in 148 W/m2
07:54 75.1 °F 73.3 °F 29.83 in Calm   1 mph 93.9% 0.00 in 269 W/m2
07:59 75.4 °F 73.1 °F 29.84 in Calm   1 mph 92.5% 0.00 in 399 W/m2
08:00 75.7 °F 73.5 °F 29.84 in Calm   1 mph 93% 0.00 in 399 W/m2
08:09 76.8 °F 73.5 °F 29.84 in WSW 0.2 mph 2 mph 89.6% 0.00 in 457 W/m2
08:14 77.4 °F 73.8 °F 29.84 in Calm   2 mph 88.7% 0.00 in 497 W/m2
08:19 78.3 °F 74.4 °F 29.84 in Calm   2 mph 87.9% 0.00 in 559 W/m2
08:24 79.1 °F 74.4 °F 29.84 in Calm   2 mph 85.5% 0.00 in 596 W/m2
08:29 80 °F 74.7 °F 29.84 in Calm   2 mph 84% 0.00 in 659 W/m2
08:34 80.7 °F 74.1 °F 29.84 in West 0.6 mph 4 mph 80.5% 0.00 in 480 W/m2
08:39 80.9 °F 73.7 °F 29.84 in Calm   4 mph 79% 0.00 in 265 W/m2
08:44 80.9 °F 73.6 °F 29.83 in West 0.1 mph 4 mph 78.6% 0.00 in 229 W/m2
08:49 80.6 °F 73.5 °F 29.83 in Calm   4 mph 79.1% 0.00 in 315 W/m2
08:54 80.4 °F 73.8 °F 29.83 in West 0.3 mph 4 mph 80.4% 0.00 in 373 W/m2
08:59 80.4 °F 73.3 °F 29.83 in West 0.2 mph 4 mph 79% 0.00 in 403 W/m2
09:04 80.5 °F 73.5 °F 29.83 in West 0.2 mph 4 mph 79.3% 0.00 in 332 W/m2
09:09 80.8 °F 73.9 °F 29.83 in West 0.9 mph 6 mph 79.7% 0.00 in 332 W/m2
09:13 81 °F 73.4 °F 29.82 in West 0.5 mph 6 mph 77.8% 0.00 in 214 W/m2
09:19 80.9 °F 73.1 °F 29.83 in West 0.2 mph 6 mph 77.2% 0.00 in 186 W/m2
09:24 80.7 °F 72.8 °F 29.83 in West 0.4 mph 6 mph 76.9% 0.00 in 214 W/m2
09:29 80.5 °F 72.9 °F 29.83 in West 0.7 mph 6 mph 77.7% 0.00 in 218 W/m2
09:34 80.2 °F 72.4 °F 29.83 in WNW 1.7 mph 6 mph 77.1% 0.00 in 207 W/m2
09:39 79.8 °F 71.5 °F 29.83 in WNW 0.7 mph 6 mph 76% 0.00 in 176 W/m2
09:44 79.5 °F 71.4 °F 29.83 in WNW 0.1 mph 6 mph 76.4% 0.00 in 190 W/m2
09:49 79.3 °F 71.6 °F 29.83 in Calm   6 mph 77.4% 0.00 in 200 W/m2
09:54 79.2 °F 71.5 °F 29.83 in WNW 0.4 mph 6 mph 77.3% 0.00 in 200 W/m2
09:59 79.1 °F 71.2 °F 29.83 in Calm   6 mph 76.8% 0.00 in 178 W/m2
10:04 79.1 °F 70.9 °F 29.83 in Calm   6 mph 76.1% 0.00 in 155 W/m2
10:09 79.1 °F 71.5 °F 29.83 in Calm     77.5% 0.00 in 185 W/m2
10:14 79.3 °F 71.6 °F 29.83 in Calm     77.4% 0.00 in 246 W/m2
10:19 79.5 °F 72.4 °F 29.83 in Calm     78.9% 0.00 in 244 W/m2
10:24 79.7 °F 72.3 °F 29.83 in Calm     78.1% 0.00 in 230 W/m2
10:29 79.8 °F 72.4 °F 29.83 in Calm     78% 0.00 in 206 W/m2
10:34 80 °F 72.5 °F 29.84 in WNW 0.1 mph 3 mph 78% 0.00 in 213 W/m2
10:39 80 °F 72.5 °F 29.84 in Calm   3 mph 77.9% 0.00 in 207 W/m2
10:44 80.1 °F 73.2 °F 29.84 in Calm   3 mph 79.5% 0.00 in 186 W/m2
10:49 80 °F 72.4 °F 29.84 in Calm   3 mph 77.5% 0.00 in 220 W/m2
10:54 79.9 °F 72.3 °F 29.84 in Calm   3 mph 77.6% 0.00 in 211 W/m2
10:59 79.9 °F 72.5 °F 29.84 in Calm   3 mph 78.2% 0.00 in 181 W/m2
11:04 79.9 °F 72.4 °F 29.84 in Calm   3 mph 78% 0.00 in 162 W/m2
11:09 79.9 °F 72.7 °F 29.84 in Calm     78.7% 0.00 in 142 W/m2
11:14 79.8 °F 72.8 °F 29.84 in WNW 0.5 mph 4 mph 79.2% 0.00 in 193 W/m2
11:19 79.7 °F 72.3 °F 29.84 in WNW 0.4 mph 4 mph 78% 0.00 in 158 W/m2
11:24 79.7 °F 72.6 °F 29.84 in Calm   4 mph 79% 0.00 in 265 W/m2
11:29 79.7 °F 72.8 °F 29.84 in Calm   4 mph 79.5% 0.00 in 278 W/m2
11:34 79.8 °F 72.8 °F 29.84 in Calm   4 mph 79.4% 0.00 in 366 W/m2
11:39 80 °F 72.8 °F 29.84 in Calm   2 mph 78.6% 0.00 in 294 W/m2
11:44 80.2 °F 72.7 °F 29.84 in WNW 0.3 mph 4 mph 77.8% 0.00 in 281 W/m2
11:49 80.3 °F 72.4 °F 29.84 in WNW 0.5 mph 4 mph 76.8% 0.00 in 279 W/m2
11:54 80.4 °F 72.2 °F 29.84 in WNW 0.8 mph 4 mph 76.1% 0.00 in 301 W/m2
11:59 80.4 °F 72 °F 29.84 in WNW 0.1 mph 4 mph 75.4% 0.00 in 299 W/m2
12:00 80.5 °F 72.2 °F 29.83 in Calm   4 mph 76% 0.00 in 179 W/m2
12:09 80.4 °F 72 °F 29.84 in WNW 0.2 mph 3 mph 75.6% 0.00 in 125 W/m2
12:14 80.4 °F 72.1 °F 29.84 in Calm   3 mph 76% 0.00 in 135 W/m2
12:19 80.3 °F 71.9 °F 29.84 in Calm   3 mph 75.5% 0.00 in 134 W/m2
12:24 80.2 °F 71.6 °F 29.84 in Calm   3 mph 75.2% 0.00 in 111 W/m2
12:29 80.1 °F 71.7 °F 29.83 in Calm   3 mph 75.5% 0.00 in 144 W/m2
12:34 80 °F 71.9 °F 29.83 in WNW 0.1 mph 3 mph 76.3% 0.00 in 204 W/m2
12:39 79.9 °F 71.9 °F 29.83 in WNW 0.4 mph 4 mph 76.6% 0.00 in 188 W/m2
12:44 79.8 °F 71.9 °F 29.83 in WNW 0.2 mph 4 mph 76.9% 0.00 in 171 W/m2
12:49 79.8 °F 72.3 °F 29.83 in Calm   4 mph 77.8% 0.00 in 241 W/m2
12:54 79.8 °F 72.2 °F 29.83 in WNW 0.3 mph 4 mph 77.5% 0.00 in 258 W/m2
12:59 79.8 °F 72.1 °F 29.83 in WNW 1 mph 4 mph 77.4% 0.00 in 209 W/m2
13:04 79.8 °F 72.2 °F 29.83 in WNW 0.1 mph 4 mph 77.8% 0.00 in 116 W/m2
13:09 79.7 °F 72 °F 29.83 in WNW 0.6 mph 4 mph 77.4% 0.00 in 84 W/m2
13:14 79.5 °F 71.7 °F 29.83 in WNW 0.9 mph 5 mph 77.2% 0.00 in 63 W/m2
13:19 79.2 °F 71.6 °F 29.83 in Calm   5 mph 77.6% 0.00 in 148 W/m2
13:24 79.1 °F 72 °F 29.83 in NW 0.3 mph 5 mph 78.9% 0.00 in 174 W/m2
13:29 79 °F 72.5 °F 29.83 in NW 0.1 mph 5 mph 80.4% 0.00 in 165 W/m2
13:34 79.1 °F 73.2 °F 29.82 in Calm   5 mph 82.3% 0.00 in 190 W/m2
13:39 79.1 °F 73.4 °F 29.82 in Calm     82.7% 0.00 in 192 W/m2
13:44 79.1 °F 73.1 °F 29.82 in Calm     82% 0.00 in 229 W/m2
13:49 79.1 °F 73 °F 29.82 in Calm     81.6% 0.00 in 229 W/m2
13:54 79.2 °F 72.8 °F 29.82 in Calm     81% 0.00 in 179 W/m2
13:59 79 °F 72.5 °F 29.81 in Calm     80.3% 0.00 in 179 W/m2
14:04 79 °F 72.7 °F 29.80 in Calm     81.1% 0.00 in 167 W/m2
14:09 79 °F 72.8 °F 29.80 in Calm     81.3% 0.00 in 125 W/m2
14:14 78.9 °F 72.5 °F 29.80 in Calm     80.6% 0.00 in 125 W/m2
14:19 79 °F 73 °F 29.80 in Calm     81.9% 0.00 in 134 W/m2
14:24 79.1 °F 73.4 °F 29.81 in Calm     82.7% 0.00 in 137 W/m2
14:29 79.1 °F 73.5 °F 29.81 in Calm     82.9% 0.00 in 134 W/m2
14:34 79.1 °F 73.2 °F 29.81 in Calm     82.2% 0.00 in 98 W/m2
14:39 79.1 °F 73.1 °F 29.81 in Calm     82% 0.00 in 93 W/m2
14:44 79 °F 73.2 °F 29.80 in Calm     82.3% 0.00 in 91 W/m2
14:49 79 °F 73.3 °F 29.80 in Calm     82.8% 0.00 in 79 W/m2
14:54 79 °F 73.6 °F 29.80 in Calm     83.6% 0.01 in 97 W/m2
14:59 78.9 °F 73.6 °F 29.80 in Calm     84% 0.01 in 100 W/m2
15:04 78.7 °F 73.6 °F 29.80 in Calm     84.5% 0.01 in 107 W/m2
15:09 78.4 °F 73.5 °F 29.80 in Calm     85.1% 0.02 in 107 W/m2
15:14 78.1 °F 73.4 °F 29.80 in Calm     85.3% 0.02 in 142 W/m2
15:19 78 °F 73.5 °F 29.80 in Calm     86% 0.02 in 160 W/m2
15:24 77.9 °F 73.4 °F 29.80 in Calm     86% 0.02 in 134 W/m2
15:29 77.8 °F 73.3 °F 29.80 in Calm     86% 0.02 in 84 W/m2
15:34 77.7 °F 73.2 °F 29.80 in Calm     86% 0.02 in 93 W/m2
15:39 77.5 °F 72.4 °F 29.80 in Calm     84.3% 0.02 in 109 W/m2
15:44 77.4 °F 72.5 °F 29.80 in Calm     84.8% 0.02 in 137 W/m2
15:49 77.5 °F 72.6 °F 29.79 in Calm     85% 0.02 in 151 W/m2
15:54 77.6 °F 72.7 °F 29.79 in Calm     85.1% 0.02 in 151 W/m2
15:59 77.6 °F 72.4 °F 29.79 in Calm     84% 0.02 in 160 W/m2
16:09 77.8 °F 72.3 °F 29.79 in Calm     83.1% 0.02 in 121 W/m2
16:14 77.8 °F 71.9 °F 29.79 in Calm     82% 0.02 in 107 W/m2
16:19 77.7 °F 71.5 °F 29.79 in Calm     81.2% 0.02 in 102 W/m2
16:24 77.7 °F 71.6 °F 29.79 in Calm     81.6% 0.02 in 127 W/m2
16:29 77.8 °F 71.8 °F 29.79 in Calm     82% 0.02 in 105 W/m2
16:34 77.7 °F 71.4 °F 29.78 in Calm     80.9% 0.02 in 95 W/m2
16:39 77.6 °F 70.8 °F 29.78 in Calm     79.6% 0.00 in 116 W/m2
16:44 77.5 °F 70.6 °F 29.77 in Calm     79.3% 0.00 in 169 W/m2
16:49 77.4 °F 70.7 °F 29.77 in Calm     79.8% 0.00 in 169 W/m2
16:54 77.5 °F 70.6 °F 29.77 in Calm     79.3% 0.00 in 165 W/m2
16:59 77.5 °F 70.2 °F 29.77 in Calm   1 mph 78.3% 0.00 in 169 W/m2
17:04 77.5 °F 70.1 °F 29.77 in Calm   1 mph 78% 0.00 in 171 W/m2
17:09 77.6 °F 70.2 °F 29.77 in Calm     78% 0.00 in 160 W/m2
17:14 77.7 °F 70.3 °F 29.77 in Calm     78% 0.00 in 102 W/m2
17:19 77.7 °F 70.4 °F 29.77 in Calm     78.3% 0.00 in 88 W/m2
17:24 77.7 °F 70.8 °F 29.77 in Calm     79.3% 0.00 in 86 W/m2
17:29 77.7 °F 71 °F 29.77 in Calm     80% 0.00 in 70 W/m2
17:34 77.6 °F 70.9 °F 29.76 in Calm     80% 0.00 in 49 W/m2
17:39 77.4 °F 70.9 °F 29.76 in Calm     80.3% 0.00 in 49 W/m2
17:44 77.3 °F 71.3 °F 29.76 in Calm     81.6% 0.00 in 40 W/m2
17:49 77.2 °F 71.6 °F 29.76 in Calm     82.8% 0.00 in 37 W/m2
17:54 77.1 °F 71.6 °F 29.76 in Calm     83% 0.00 in 46 W/m2
17:59 77.1 °F 71.9 °F 29.76 in Calm     84% 0.00 in 46 W/m2
18:04 77 °F 71.8 °F 29.76 in Calm     84% 0.00 in 44 W/m2
18:09 77 °F 71.9 °F 29.76 in Calm     84.3% 0.00 in 70 W/m2
18:14 77 °F 72.2 °F 29.75 in Calm     85% 0.00 in 90 W/m2
18:19 77 °F 72.1 °F 29.75 in Calm     85% 0.00 in 95 W/m2
18:24 76.9 °F 72 °F 29.75 in Calm     85% 0.00 in 98 W/m2
18:29 76.9 °F 72 °F 29.75 in Calm     85% 0.00 in 98 W/m2
18:34 76.8 °F 72 °F 29.75 in Calm     85.2% 0.00 in 100 W/m2
18:39 76.8 °F 71.9 °F 29.75 in Calm     85% 0.00 in 84 W/m2
18:44 76.8 °F 71.6 °F 29.75 in Calm     84% 0.00 in 54 W/m2
18:49 76.7 °F 71.5 °F 29.75 in Calm     84% 0.00 in 47 W/m2
18:54 76.6 °F 71.1 °F 29.76 in Calm     83.2% 0.00 in 44 W/m2
18:59 76.5 °F 70.9 °F 29.76 in Calm     83% 0.00 in 26 W/m2
19:04 76.4 °F 70.9 °F 29.76 in Calm     83% 0.00 in 14 W/m2
19:09 76.4 °F 70.8 °F 29.76 in Calm     83% 0.00 in 9 W/m2
19:14 76.3 °F 70.9 °F 29.76 in Calm     83.6% 0.00 in 11 W/m2
19:19 76.2 °F 71.2 °F 29.76 in Calm     84.6% 0.00 in 11 W/m2
19:24 76.1 °F 71.5 °F 29.76 in Calm     85.8% 0.00 in 9 W/m2
19:29 76.1 °F 71.7 °F 29.76 in Calm     86.4% 0.00 in 9 W/m2
19:34 76.1 °F 71.9 °F 29.76 in Calm     87% 0.00 in 5 W/m2
19:39 75.9 °F 71.8 °F 29.76 in Calm     87% 0.00 in 5 W/m2
19:44 75.8 °F 71.9 °F 29.76 in Calm     87.8% 0.00 in 0 W/m2
19:49 75.6 °F 71.8 °F 29.76 in Calm     88% 0.02 in 0 W/m2
19:54 75.5 °F 72 °F 29.76 in Calm     88.9% 0.04 in 0 W/m2
19:59 75.3 °F 71.9 °F 29.76 in Calm     89.1% 0.08 in 0 W/m2
20:00 75.2 °F 72.1 °F 29.76 in Calm     90% 0.08 in 0 W/m2
20:09 74.9 °F 72 °F 29.76 in Calm     90.5% 0.16 in 0 W/m2
20:14 74.7 °F 71.9 °F 29.76 in NW 0.1 mph 2 mph 91% 0.21 in 0 W/m2
20:19 74 °F 70.7 °F 29.76 in Calm   2 mph 89.5% 0.23 in 0 W/m2
20:24 73.1 °F 69.7 °F 29.76 in Calm   2 mph 89% 0.24 in 0 W/m2
20:29 72.6 °F 69.1 °F 29.76 in Calm   2 mph 89% 0.24 in 0 W/m2
20:34 72.1 °F 68.9 °F 29.76 in Calm   2 mph 89.6% 0.26 in 0 W/m2
20:39 71.8 °F 68.8 °F 29.76 in Calm     90.2% 0.30 in 0 W/m2
20:44 71.6 °F 68.8 °F 29.76 in Calm     91% 0.31 in 0 W/m2
20:49 71.5 °F 68.9 °F 29.76 in Calm     91.7% 0.32 in 0 W/m2
20:54 71.4 °F 69 °F 29.76 in Calm     92% 0.34 in 0 W/m2
20:59 71.4 °F 69.1 °F 29.76 in Calm     92.4% 0.38 in 0 W/m2
21:04 71.3 °F 69 °F 29.76 in Calm     92.5% 0.38 in 0 W/m2
21:09 71.2 °F 69 °F 29.76 in NW 0.1 mph 3 mph 92.7% 0.51 in 0 W/m2
21:14 71.1 °F 69 °F 29.76 in NW 0.1 mph 3 mph 93% 0.59 in 0 W/m2
21:19 71 °F 68.9 °F 29.76 in NW 0.1 mph 3 mph 93% 0.65 in 0 W/m2
21:24 70.8 °F 68.7 °F 29.75 in Calm   3 mph 93% 0.69 in 0 W/m2
21:29 70.6 °F 68.4 °F 29.75 in Calm   3 mph 93% 0.77 in 0 W/m2
21:34 70.4 °F 68.2 °F 29.76 in Calm   3 mph 93% 0.77 in 0 W/m2
21:39 70.2 °F 68.1 °F 29.75 in Calm     93% 0.88 in 0 W/m2
21:44 69.9 °F 67.8 °F 29.75 in Calm     93% 1.04 in 0 W/m2
21:49 69.7 °F 67.6 °F 29.75 in Calm     93.2% 1.15 in 0 W/m2
21:54 69.5 °F 67.7 °F 29.75 in Calm     94% 1.28 in 0 W/m2
21:59 69.3 °F 67.5 °F 29.74 in Calm     94% 1.41 in 0 W/m2
22:04 69.2 °F 67.4 °F 29.74 in Calm     94% 1.42 in 0 W/m2
22:09 69 °F 67.2 °F 29.74 in Calm     94% 1.37 in 0 W/m2
22:14 68.9 °F 67.2 °F 29.74 in Calm     94% 1.43 in 0 W/m2
22:19 68.9 °F 67.1 °F 29.74 in Calm     94.1% 1.48 in 0 W/m2
22:24 68.9 °F 67.3 °F 29.74 in Calm     94.6% 1.52 in 0 W/m2
22:29 68.8 °F 67.2 °F 29.74 in Calm     94.5% 1.53 in 0 W/m2
22:34 68.8 °F 67.3 °F 29.73 in Calm     95% 1.53 in 0 W/m2
22:39 68.8 °F 67.3 °F 29.73 in Calm     95% 1.06 in 0 W/m2
22:44 68.8 °F 67.3 °F 29.73 in Calm     95% 1.07 in 0 W/m2
22:49 68.7 °F 67.2 °F 29.73 in Calm     95% 1.07 in 0 W/m2
22:54 68.6 °F 67.1 °F 29.73 in Calm     95% 1.07 in 0 W/m2
22:59 68.7 °F 67.2 °F 29.73 in Calm     95% 1.07 in 0 W/m2
23:04 68.7 °F 67.2 °F 29.73 in Calm     95% 1.07 in 0 W/m2
23:09 68.7 °F 67.2 °F 29.73 in Calm     95% 0.26 in 0 W/m2
23:14 68.7 °F 67.2 °F 29.73 in Calm     95% 0.26 in 0 W/m2
23:19 68.7 °F 67.2 °F 29.72 in Calm     95% 0.26 in 0 W/m2
23:24 68.8 °F 67.3 °F 29.72 in Calm     95% 0.26 in 0 W/m2
23:29 68.8 °F 67.3 °F 29.72 in Calm     95% 0.26 in 0 W/m2
23:34 68.8 °F 67.3 °F 29.72 in Calm     95% 0.26 in 0 W/m2
23:39 68.8 °F 67.3 °F 29.72 in Calm     95% 0.01 in 0 W/m2
23:44 68.8 °F 67.3 °F 29.72 in Calm     95% 0.01 in 0 W/m2
23:49 68.8 °F 67.5 °F 29.72 in Calm     95.6% 0.01 in 0 W/m2
23:54 68.8 °F 67.6 °F 29.72 in Calm     96% 0.01 in 0 W/m2
23:59 68.8 °F 67.6 °F 29.72 in Calm     96% 0.01 in 0 W/m2
Hartford County Weather
Compliments of Weather Underground - 4 mb